createdAt,value
2018-09-17T00:00:45.357Z,0
2018-09-17T00:01:54.010Z,0
2018-09-17T00:03:02.647Z,0
2018-09-17T00:04:11.285Z,0
2018-09-17T00:05:19.930Z,0
2018-09-17T00:06:28.570Z,0
2018-09-17T00:07:37.217Z,0
2018-09-17T00:08:45.859Z,0
2018-09-17T00:09:54.501Z,0
2018-09-17T00:11:03.142Z,0
2018-09-17T00:12:11.784Z,0
2018-09-17T00:13:20.432Z,0
2018-09-17T00:14:29.077Z,0
2018-09-17T00:15:37.724Z,0
2018-09-17T00:16:46.624Z,0
2018-09-17T00:17:55.271Z,0
2018-09-17T00:19:04.181Z,0
2018-09-17T00:20:12.826Z,0
2018-09-17T00:21:21.462Z,0
2018-09-17T00:22:30.112Z,0
2018-09-17T00:23:38.752Z,0
2018-09-17T00:24:47.396Z,0
2018-09-17T00:25:56.030Z,0
2018-09-17T00:27:04.674Z,0
2018-09-17T00:28:13.322Z,0
2018-09-17T00:29:21.967Z,0
2018-09-17T00:30:30.612Z,0
2018-09-17T00:31:39.246Z,0
2018-09-17T00:32:47.895Z,0
2018-09-17T00:33:56.532Z,0
2018-09-17T00:35:05.183Z,0
2018-09-17T00:36:13.820Z,0
2018-09-17T00:37:22.466Z,0
2018-09-17T00:38:31.104Z,0
2018-09-17T00:39:40.020Z,0
2018-09-17T00:40:48.651Z,0
2018-09-17T00:41:57.298Z,0
2018-09-17T00:43:06.202Z,0
2018-09-17T00:44:14.856Z,0
2018-09-17T00:45:23.766Z,0
2018-09-17T00:46:32.662Z,0
2018-09-17T00:47:41.304Z,0
2018-09-17T00:48:49.942Z,0
2018-09-17T00:49:58.594Z,0
2018-09-17T00:51:07.234Z,0
2018-09-17T00:52:15.884Z,0
2018-09-17T00:53:24.783Z,0
2018-09-17T00:54:33.704Z,0
2018-09-17T00:55:42.604Z,0
2018-09-17T00:56:51.515Z,0
2018-09-17T00:58:00.340Z,0
2018-09-17T00:59:08.799Z,0
2018-09-17T01:00:17.438Z,0
2018-09-17T01:01:26.082Z,0
2018-09-17T01:02:34.987Z,0
2018-09-17T01:03:43.631Z,0
2018-09-17T01:04:52.282Z,0
2018-09-17T01:06:00.925Z,0
2018-09-17T01:07:09.570Z,0
2018-09-17T01:08:18.203Z,0
2018-09-17T01:09:26.851Z,0
2018-09-17T01:10:35.487Z,0
2018-09-17T01:11:44.138Z,0
2018-09-17T01:12:52.772Z,0
2018-09-17T01:14:01.424Z,0
2018-09-17T01:15:10.319Z,0
2018-09-17T01:16:19.240Z,0
2018-09-17T01:17:27.869Z,0
2018-09-17T01:18:36.519Z,0
2018-09-17T01:19:45.424Z,0
2018-09-17T01:20:54.057Z,0
2018-09-17T01:22:02.703Z,0
2018-09-17T01:23:11.345Z,0
2018-09-17T01:24:19.988Z,0
2018-09-17T01:25:28.633Z,0
2018-09-17T01:26:37.268Z,0
2018-09-17T01:27:45.915Z,0
2018-09-17T01:28:54.556Z,0
2018-09-17T01:30:03.208Z,0
2018-09-17T01:31:11.841Z,0
2018-09-17T01:32:20.490Z,0
2018-09-17T01:33:29.126Z,0
2018-09-17T01:34:37.804Z,0
2018-09-17T01:35:46.411Z,0
2018-09-17T01:36:55.316Z,0
2018-09-17T01:38:03.962Z,0
2018-09-17T01:39:12.872Z,0
2018-09-17T01:40:21.514Z,0
2018-09-17T01:41:30.153Z,0
2018-09-17T01:42:38.792Z,0
2018-09-17T01:43:47.699Z,0
2018-09-17T01:44:56.624Z,0
2018-09-17T01:46:05.584Z,0
2018-09-17T01:47:14.186Z,0
2018-09-17T01:48:22.820Z,0
2018-09-17T01:49:31.748Z,0
2018-09-17T01:50:40.385Z,0
2018-09-17T01:51:49.031Z,0
2018-09-17T01:52:57.924Z,0
2018-09-17T01:54:06.576Z,0
2018-09-17T01:55:15.218Z,0
2018-09-17T01:56:23.866Z,0
2018-09-17T01:57:32.497Z,0
2018-09-17T01:58:41.142Z,0
2018-09-17T01:59:49.791Z,0
2018-09-17T02:00:58.693Z,0
2018-09-17T02:02:07.338Z,0
2018-09-17T02:03:15.972Z,0
2018-09-17T02:04:24.623Z,0
2018-09-17T02:05:33.260Z,0
2018-09-17T02:06:41.911Z,0
2018-09-17T02:07:50.545Z,0
2018-09-17T02:08:59.197Z,0
2018-09-17T02:10:08.192Z,0
2018-09-17T02:11:17.110Z,0
2018-09-17T02:12:26.020Z,0
2018-09-17T02:13:35.186Z,0
2018-09-17T02:14:43.828Z,0
2018-09-17T02:15:52.479Z,0
2018-09-17T02:17:01.120Z,0
2018-09-17T02:18:09.758Z,0
2018-09-17T02:19:18.401Z,0
2018-09-17T02:20:27.048Z,0
2018-09-17T02:21:35.688Z,0
2018-09-17T02:22:44.330Z,0
2018-09-17T02:23:52.976Z,0
2018-09-17T02:25:01.614Z,0
2018-09-17T02:26:10.518Z,0
2018-09-17T02:27:19.161Z,0
2018-09-17T02:28:27.802Z,0
2018-09-17T02:29:36.439Z,0
2018-09-17T02:30:45.087Z,0
2018-09-17T02:31:53.727Z,0
2018-09-17T02:33:02.375Z,0
2018-09-17T02:34:11.019Z,0
2018-09-17T02:35:19.662Z,0
2018-09-17T02:36:28.303Z,0
2018-09-17T02:37:36.948Z,0
2018-09-17T02:38:45.592Z,0
2018-09-17T02:39:54.243Z,0
2018-09-17T02:41:03.142Z,0
2018-09-17T02:42:11.788Z,0
2018-09-17T02:43:20.435Z,0
2018-09-17T02:44:29.337Z,0
2018-09-17T02:45:37.977Z,0
2018-09-17T02:46:46.634Z,0
2018-09-17T02:47:55.796Z,0
2018-09-17T02:49:04.703Z,0
2018-09-17T02:50:13.348Z,0
2018-09-17T02:51:22.001Z,0
2018-09-17T02:52:30.648Z,0
2018-09-17T02:53:39.367Z,0
2018-09-17T02:54:47.936Z,0
2018-09-17T02:55:56.574Z,0
2018-09-17T02:57:05.216Z,0
2018-09-17T02:58:13.868Z,0
2018-09-17T02:59:22.514Z,0
2018-09-17T03:00:31.162Z,0
2018-09-17T03:01:39.811Z,0
2018-09-17T03:02:48.455Z,0
2018-09-17T03:03:57.102Z,0
2018-09-17T03:05:05.745Z,0
2018-09-17T03:06:14.381Z,0
2018-09-17T03:07:23.033Z,0
2018-09-17T03:08:31.677Z,0
2018-09-17T03:09:40.325Z,0
2018-09-17T03:10:49.228Z,0
2018-09-17T03:11:57.876Z,0
2018-09-17T03:13:06.528Z,0
2018-09-17T03:14:15.172Z,0
2018-09-17T03:15:24.092Z,0
2018-09-17T03:16:32.733Z,0
2018-09-17T03:17:41.645Z,0
2018-09-17T03:18:50.283Z,0
2018-09-17T03:19:58.937Z,0
2018-09-17T03:21:07.584Z,0
2018-09-17T03:22:16.495Z,0
2018-09-17T03:23:25.130Z,0
2018-09-17T03:24:33.801Z,0
2018-09-17T03:25:42.708Z,0
2018-09-17T03:26:51.636Z,0
2018-09-17T03:28:00.279Z,0
2018-09-17T03:29:08.937Z,0
2018-09-17T03:30:17.583Z,0
2018-09-17T03:31:26.507Z,0
2018-09-17T03:32:35.428Z,0
2018-09-17T03:33:44.070Z,0
2018-09-17T03:34:52.986Z,0
2018-09-17T03:36:01.627Z,0
2018-09-17T03:37:10.277Z,0
2018-09-17T03:38:18.913Z,0
2018-09-17T03:39:27.570Z,0
2018-09-17T03:40:36.209Z,0
2018-09-17T03:41:45.132Z,0
2018-09-17T03:42:53.765Z,0
2018-09-17T03:44:02.423Z,0
2018-09-17T03:45:11.330Z,0
2018-09-17T03:46:20.076Z,0
2018-09-17T03:47:28.606Z,0
2018-09-17T03:48:37.256Z,0
2018-09-17T03:49:45.901Z,0
2018-09-17T03:50:54.553Z,0
2018-09-17T03:52:03.199Z,0
2018-09-17T03:53:11.835Z,0
2018-09-17T03:54:20.479Z,0
2018-09-17T03:55:29.117Z,0
2018-09-17T03:56:37.769Z,0
2018-09-17T03:57:46.405Z,0
2018-09-17T03:58:55.051Z,0
2018-09-17T04:00:03.688Z,0
2018-09-17T04:01:12.340Z,0
2018-09-17T04:02:20.979Z,0
2018-09-17T04:03:29.895Z,0
2018-09-17T04:04:38.536Z,0
2018-09-17T04:05:47.187Z,0
2018-09-17T04:06:55.828Z,0
2018-09-17T04:08:04.726Z,0
2018-09-17T04:09:13.375Z,0
2018-09-17T04:10:22.008Z,0
2018-09-17T04:11:30.659Z,0
2018-09-17T04:12:39.559Z,0
2018-09-17T04:13:48.213Z,0
2018-09-17T04:14:56.845Z,0
2018-09-17T04:16:05.492Z,0
2018-09-17T04:17:14.397Z,0
2018-09-17T04:18:23.039Z,0
2018-09-17T04:19:31.681Z,0
2018-09-17T04:20:40.331Z,0
2018-09-17T04:21:48.969Z,0
2018-09-17T04:22:57.871Z,0
2018-09-17T04:24:06.510Z,0
2018-09-17T04:25:15.519Z,0
2018-09-17T04:26:24.423Z,0
2018-09-17T04:27:33.070Z,0
2018-09-17T04:28:41.711Z,0
2018-09-17T04:29:50.348Z,0
2018-09-17T04:30:59.255Z,0
2018-09-17T04:32:07.893Z,0
2018-09-17T04:33:16.540Z,0
2018-09-17T04:34:25.179Z,0
2018-09-17T04:35:33.823Z,0
2018-09-17T04:36:42.475Z,0
2018-09-17T04:37:51.115Z,0
2018-09-17T04:38:59.752Z,4
2018-09-17T04:40:08.396Z,0
2018-09-17T04:41:17.038Z,0
2018-09-17T04:42:25.690Z,4
2018-09-17T04:43:34.598Z,4
2018-09-17T04:44:43.242Z,4
2018-09-17T04:45:52.143Z,4
2018-09-17T04:47:00.784Z,4
2018-09-17T04:48:09.429Z,8
2018-09-17T04:49:18.072Z,8
2018-09-17T04:50:26.714Z,12
2018-09-17T04:51:35.352Z,12
2018-09-17T04:52:43.997Z,16
2018-09-17T04:53:52.638Z,20
2018-09-17T04:55:01.281Z,20
2018-09-17T04:56:09.915Z,24
2018-09-17T04:57:18.596Z,32
2018-09-17T04:58:27.207Z,36
2018-09-17T04:59:36.112Z,40
2018-09-17T05:00:44.748Z,48
2018-09-17T05:01:53.396Z,52
2018-09-17T05:03:02.299Z,56
2018-09-17T05:04:11.205Z,60
2018-09-17T05:05:19.851Z,68
2018-09-17T05:06:28.488Z,72
2018-09-17T05:07:37.395Z,80
2018-09-17T05:08:46.037Z,84
2018-09-17T05:09:54.688Z,92
2018-09-17T05:11:03.326Z,100
2018-09-17T05:12:11.969Z,112
2018-09-17T05:13:21.305Z,120
2018-09-17T05:14:29.786Z,132
2018-09-17T05:15:38.434Z,140
2018-09-17T05:16:47.774Z,156
2018-09-17T05:17:56.420Z,172
2018-09-17T05:19:05.577Z,184
2018-09-17T05:20:14.226Z,200
2018-09-17T05:21:22.867Z,216
2018-09-17T05:22:31.509Z,228
2018-09-17T05:23:40.156Z,240
2018-09-17T05:24:48.798Z,256
2018-09-17T05:25:57.444Z,276
2018-09-17T05:27:06.078Z,292
2018-09-17T05:28:14.998Z,316
2018-09-17T05:29:23.637Z,336
2018-09-17T05:30:32.543Z,352
2018-09-17T05:31:41.187Z,376
2018-09-17T05:32:49.834Z,396
2018-09-17T05:33:58.478Z,416
2018-09-17T05:35:07.574Z,440
2018-09-17T05:36:16.408Z,456
2018-09-17T05:37:25.328Z,484
2018-09-17T05:38:33.966Z,508
2018-09-17T05:39:42.610Z,532
2018-09-17T05:40:51.251Z,556
2018-09-17T05:41:59.893Z,588
2018-09-17T05:43:08.541Z,620
2018-09-17T05:44:17.200Z,656
2018-09-17T05:45:26.111Z,692
2018-09-17T05:46:34.751Z,728
2018-09-17T05:47:43.399Z,764
2018-09-17T05:48:52.706Z,796
2018-09-17T05:50:01.348Z,824
2018-09-17T05:51:09.985Z,852
2018-09-17T05:52:18.632Z,876
2018-09-17T05:53:27.273Z,892
2018-09-17T05:54:35.930Z,904
2018-09-17T05:55:44.818Z,912
2018-09-17T05:56:53.464Z,924
2018-09-17T05:58:02.108Z,928
2018-09-17T05:59:10.752Z,932
2018-09-17T06:00:19.403Z,932
2018-09-17T06:01:28.032Z,924
2018-09-17T06:02:36.674Z,916
2018-09-17T06:03:45.318Z,904
2018-09-17T06:04:53.961Z,896
2018-09-17T06:06:02.673Z,884
2018-09-17T06:07:11.368Z,872
2018-09-17T06:08:19.887Z,868
2018-09-17T06:09:28.534Z,864
2018-09-17T06:10:37.170Z,876
2018-09-17T06:11:46.237Z,884
2018-09-17T06:12:54.797Z,892
2018-09-17T06:14:03.455Z,900
2018-09-17T06:15:12.097Z,900
2018-09-17T06:16:20.736Z,884
2018-09-17T06:17:29.768Z,896
2018-09-17T06:18:38.704Z,912
2018-09-17T06:19:47.623Z,924
2018-09-17T06:20:56.260Z,920
2018-09-17T06:22:04.907Z,928
2018-09-17T06:23:13.595Z,916
2018-09-17T06:24:22.194Z,940
2018-09-17T06:25:30.831Z,936
2018-09-17T06:26:39.615Z,948
2018-09-17T06:27:48.405Z,980
2018-09-17T06:28:57.407Z,972
2018-09-17T06:30:06.047Z,1024
2018-09-17T06:31:14.955Z,1032
2018-09-17T06:32:23.588Z,1020
2018-09-17T06:33:32.233Z,1024
2018-09-17T06:34:40.880Z,1040
2018-09-17T06:35:49.525Z,1068
2018-09-17T06:38:06.802Z,1164
2018-09-17T06:39:15.449Z,1220
2018-09-17T06:40:24.089Z,1304
2018-09-17T06:41:32.760Z,1388
2018-09-17T06:42:41.746Z,1432
2018-09-17T06:43:50.394Z,1404
2018-09-17T06:44:59.097Z,1400
2018-09-17T06:46:07.685Z,1396
2018-09-17T06:47:16.594Z,1416
2018-09-17T06:48:25.239Z,1408
2018-09-17T06:49:33.885Z,1384
2018-09-17T06:50:42.532Z,1388
2018-09-17T06:51:51.434Z,1428
2018-09-17T06:53:00.074Z,1468
2018-09-17T06:54:08.981Z,1480
2018-09-17T06:55:17.623Z,1476
2018-09-17T06:56:26.274Z,1476
2018-09-17T06:57:34.918Z,1412
2018-09-17T06:58:43.569Z,1440
2018-09-17T06:59:52.205Z,1476
2018-09-17T07:01:00.859Z,1452
2018-09-17T07:02:09.499Z,1392
2018-09-17T07:03:18.669Z,1384
2018-09-17T07:04:27.301Z,1440
2018-09-17T07:05:36.224Z,1488
2018-09-17T07:06:44.865Z,1464
2018-09-17T07:07:53.509Z,1508
2018-09-17T07:09:02.155Z,1488
2018-09-17T07:10:10.800Z,1500
2018-09-17T07:11:19.450Z,1488
2018-09-17T07:12:28.098Z,1540
2018-09-17T07:13:36.746Z,1508
2018-09-17T07:14:45.646Z,1500
2018-09-17T07:15:54.556Z,1512
2018-09-17T07:17:03.196Z,1524
2018-09-17T07:18:11.867Z,1552
2018-09-17T07:19:20.753Z,1632
2018-09-17T07:20:29.403Z,1656
2018-09-17T07:21:38.045Z,1612
2018-09-17T07:22:46.697Z,1644
2018-09-17T07:23:55.327Z,1660
2018-09-17T07:25:03.975Z,1684
2018-09-17T07:26:12.619Z,1704
2018-09-17T07:27:21.270Z,1720
2018-09-17T07:28:30.172Z,1744
2018-09-17T07:29:38.811Z,1800
2018-09-17T07:30:47.453Z,1836
2018-09-17T07:31:56.094Z,1900
2018-09-17T07:33:04.745Z,1972
2018-09-17T07:34:13.383Z,1992
2018-09-17T07:35:22.033Z,2012
2018-09-17T07:36:31.021Z,2076
2018-09-17T07:37:39.590Z,2128
2018-09-17T07:38:48.234Z,2184
2018-09-17T07:39:56.882Z,2248
2018-09-17T07:41:05.517Z,2312
2018-09-17T07:42:14.171Z,2360
2018-09-17T07:43:22.817Z,2400
2018-09-17T07:44:31.464Z,2472
2018-09-17T07:45:40.105Z,2536
2018-09-17T07:46:48.754Z,2624
2018-09-17T07:47:57.468Z,2700
2018-09-17T07:49:06.051Z,2800
2018-09-17T07:50:14.698Z,2888
2018-09-17T07:51:23.333Z,2960
2018-09-17T07:52:31.985Z,3032
2018-09-17T07:53:40.631Z,3084
2018-09-17T07:54:49.284Z,3140
2018-09-17T07:55:57.926Z,3184
2018-09-17T07:57:06.572Z,3216
2018-09-17T07:58:15.214Z,3248
2018-09-17T07:59:23.870Z,3276
2018-09-17T08:00:32.504Z,3308
2018-09-17T08:01:41.152Z,3312
2018-09-17T08:02:50.061Z,3316
2018-09-17T08:03:58.716Z,3288
2018-09-17T08:05:07.359Z,3252
2018-09-17T08:06:15.997Z,3160
2018-09-17T08:07:24.640Z,3120
2018-09-17T08:08:33.282Z,3188
2018-09-17T08:09:41.937Z,3208
2018-09-17T08:10:50.582Z,3168
2018-09-17T08:11:59.227Z,3104
2018-09-17T08:13:07.867Z,3080
2018-09-17T08:14:16.517Z,3116
2018-09-17T08:15:25.166Z,3060
2018-09-17T08:16:33.813Z,2980
2018-09-17T08:17:42.454Z,2912
2018-09-17T08:18:51.108Z,2856
2018-09-17T08:19:59.751Z,2800
2018-09-17T08:21:08.662Z,2728
2018-09-17T08:22:17.303Z,2688
2018-09-17T08:23:25.955Z,2624
2018-09-17T08:24:34.638Z,2572
2018-09-17T08:25:43.247Z,2496
2018-09-17T08:26:52.157Z,2444
2018-09-17T08:28:00.797Z,2400
2018-09-17T08:29:09.441Z,2348
2018-09-17T08:30:18.090Z,2320
2018-09-17T08:31:26.778Z,2324
2018-09-17T08:32:35.383Z,2348
2018-09-17T08:33:44.292Z,2416
2018-09-17T08:34:52.938Z,2484
2018-09-17T08:36:01.855Z,2540
2018-09-17T08:37:10.496Z,2524
2018-09-17T08:38:19.162Z,2516
2018-09-17T08:39:27.793Z,2576
2018-09-17T08:40:36.444Z,2600
2018-09-17T08:41:45.080Z,2668
2018-09-17T08:42:53.725Z,2756
2018-09-17T08:44:02.367Z,2792
2018-09-17T08:45:11.010Z,2760
2018-09-17T08:46:19.660Z,2752
2018-09-17T08:47:28.310Z,2868
2018-09-17T08:48:36.959Z,2944
2018-09-17T08:49:45.868Z,2972
2018-09-17T08:50:54.517Z,2948
2018-09-17T08:52:03.170Z,2960
2018-09-17T08:53:11.827Z,2952
2018-09-17T08:54:20.455Z,3052
2018-09-17T08:55:29.106Z,3044
2018-09-17T08:56:37.749Z,2936
2018-09-17T08:57:46.399Z,2904
2018-09-17T08:58:55.041Z,2796
2018-09-17T09:00:03.690Z,2736
2018-09-17T09:01:12.335Z,2776
2018-09-17T09:02:20.979Z,2884
2018-09-17T09:03:29.628Z,3076
2018-09-17T09:04:38.270Z,3108
2018-09-17T09:05:46.915Z,3016
2018-09-17T09:06:55.562Z,3048
2018-09-17T09:08:04.216Z,3072
2018-09-17T09:09:12.857Z,3100
2018-09-17T09:10:21.503Z,3108
2018-09-17T09:11:30.150Z,3072
2018-09-17T09:12:38.792Z,3108
2018-09-17T09:13:47.442Z,3176
2018-09-17T09:14:56.091Z,3196
2018-09-17T09:16:04.741Z,3184
2018-09-17T09:17:13.645Z,3268
2018-09-17T09:18:22.295Z,3324
2018-09-17T09:19:31.005Z,3392
2018-09-17T09:20:39.859Z,3504
2018-09-17T09:21:48.771Z,3560
2018-09-17T09:22:57.413Z,3464
2018-09-17T09:24:06.059Z,3412
2018-09-17T09:25:14.707Z,3480
2018-09-17T09:26:23.796Z,3428
2018-09-17T09:27:32.705Z,3428
2018-09-17T09:28:41.356Z,3432
2018-09-17T09:29:50.272Z,3468
2018-09-17T09:30:59.277Z,3508
2018-09-17T09:32:07.917Z,3548
2018-09-17T09:33:16.565Z,3508
2018-09-17T09:34:25.209Z,3496
2018-09-17T09:35:33.861Z,3440
2018-09-17T09:36:42.507Z,3336
2018-09-17T09:37:51.414Z,3260
2018-09-17T09:39:00.177Z,3212
2018-09-17T09:40:08.830Z,3148
2018-09-17T09:41:17.481Z,3064
2018-09-17T09:42:26.126Z,2992
2018-09-17T09:43:34.773Z,2892
2018-09-17T09:44:43.414Z,2840
2018-09-17T09:45:52.067Z,2784
2018-09-17T09:47:00.714Z,2788
2018-09-17T09:48:09.362Z,2760
2018-09-17T09:49:18.280Z,2740
2018-09-17T09:50:27.193Z,2708
2018-09-17T09:51:35.838Z,2652
2018-09-17T09:52:44.828Z,2580
2018-09-17T09:53:53.398Z,2604
2018-09-17T09:55:02.046Z,2592
2018-09-17T09:56:10.692Z,2628
2018-09-17T09:57:19.344Z,2616
2018-09-17T09:58:27.993Z,2656
2018-09-17T09:59:36.639Z,2752
2018-09-17T10:00:45.294Z,2760
2018-09-17T10:01:53.933Z,2780
2018-09-17T10:03:02.588Z,2776
2018-09-17T10:04:11.228Z,2796
2018-09-17T10:05:19.875Z,2800
2018-09-17T10:06:28.787Z,2824
2018-09-17T10:07:37.443Z,2844
2018-09-17T10:08:46.084Z,2764
2018-09-17T10:09:55.000Z,2812
2018-09-17T10:11:03.646Z,2816
2018-09-17T10:12:12.304Z,2816
2018-09-17T10:13:20.949Z,2880
2018-09-17T10:14:29.593Z,2884
2018-09-17T10:15:38.239Z,2888
2018-09-17T10:16:46.884Z,2864
2018-09-17T10:17:55.540Z,2872
2018-09-17T10:19:04.185Z,2896
2018-09-17T10:20:12.841Z,2960
2018-09-17T10:21:21.479Z,2988
2018-09-17T10:22:30.137Z,2976
2018-09-17T10:23:38.781Z,3020
2018-09-17T10:24:47.433Z,3036
2018-09-17T10:25:56.072Z,3156
2018-09-17T10:27:04.729Z,3140
2018-09-17T10:28:13.378Z,3144
2018-09-17T10:29:22.029Z,3200
2018-09-17T10:30:30.781Z,3304
2018-09-17T10:31:39.432Z,3304
2018-09-17T10:32:48.085Z,3332
2018-09-17T10:33:57.040Z,3376
2018-09-17T10:35:05.651Z,3364
2018-09-17T10:36:14.289Z,3340
2018-09-17T10:37:22.942Z,3344
2018-09-17T10:38:31.586Z,3340
2018-09-17T10:39:40.294Z,3392
2018-09-17T10:40:48.935Z,3432
2018-09-17T10:41:57.806Z,3444
2018-09-17T10:43:06.450Z,3420
2018-09-17T10:44:15.118Z,3404
2018-09-17T10:45:23.758Z,3428
2018-09-17T10:46:32.410Z,3440
2018-09-17T10:47:41.058Z,3412
2018-09-17T10:48:49.727Z,3356
2018-09-17T10:49:58.635Z,3356
2018-09-17T10:51:07.277Z,3364
2018-09-17T10:52:15.926Z,3324
2018-09-17T10:53:24.834Z,3316
2018-09-17T10:54:33.492Z,3292
2018-09-17T10:55:42.134Z,3144
2018-09-17T10:56:50.787Z,3160
2018-09-17T10:57:59.428Z,3128
2018-09-17T10:59:08.353Z,3252
2018-09-17T11:00:16.998Z,3316
2018-09-17T11:01:25.652Z,3336
2018-09-17T11:02:34.292Z,3444
2018-09-17T11:03:42.950Z,3524
2018-09-17T11:04:51.598Z,3540
2018-09-17T11:06:00.249Z,3628
2018-09-17T11:07:08.893Z,3784
2018-09-17T11:08:17.601Z,3884
2018-09-17T11:09:26.200Z,3844
2018-09-17T11:10:34.847Z,3912
2018-09-17T11:11:43.500Z,3888
2018-09-17T11:12:52.145Z,3932
2018-09-17T11:14:00.793Z,3960
2018-09-17T11:15:09.710Z,4028
2018-09-17T11:16:18.369Z,4024
2018-09-17T11:17:27.336Z,4140
2018-09-17T11:18:35.955Z,4096
2018-09-17T11:19:44.642Z,4072
2018-09-17T11:20:53.570Z,4032
2018-09-17T11:22:02.294Z,4016
2018-09-17T11:23:11.287Z,3952
2018-09-17T11:24:19.936Z,3968
2018-09-17T11:25:28.602Z,3972
2018-09-17T11:26:37.247Z,3956
2018-09-17T11:27:46.125Z,3884
2018-09-17T11:28:54.774Z,3868
2018-09-17T11:30:03.419Z,3760
2018-09-17T11:31:12.369Z,3688
2018-09-17T11:32:21.573Z,3644
2018-09-17T11:33:30.221Z,3576
2018-09-17T11:34:38.883Z,3524
2018-09-17T11:35:47.535Z,3460
2018-09-17T11:36:56.184Z,3408
2018-09-17T11:38:05.104Z,3372
2018-09-17T11:39:13.750Z,3304
2018-09-17T11:40:22.696Z,3288
2018-09-17T11:41:31.344Z,3224
2018-09-17T11:42:39.996Z,3244
2018-09-17T11:43:48.645Z,3252
2018-09-17T11:44:57.297Z,3280
2018-09-17T11:46:05.948Z,3364
2018-09-17T11:47:14.608Z,3312
2018-09-17T11:48:23.289Z,3288
2018-09-17T11:49:31.938Z,3264
2018-09-17T11:50:40.589Z,3472
2018-09-17T11:51:49.238Z,3608
2018-09-17T11:52:57.896Z,3496
2018-09-17T11:54:06.948Z,3500
2018-09-17T11:55:15.567Z,3528
2018-09-17T11:56:24.485Z,3624
2018-09-17T11:57:33.139Z,3616
2018-09-17T11:58:41.784Z,3536
2018-09-17T11:59:50.436Z,3492
2018-09-17T12:00:59.091Z,3372
2018-09-17T12:02:07.779Z,3420
2018-09-17T12:03:16.695Z,3436
2018-09-17T12:04:25.346Z,3416
2018-09-17T12:05:33.990Z,3360
2018-09-17T12:06:42.640Z,3332
2018-09-17T12:07:51.331Z,3248
2018-09-17T12:08:59.942Z,3128
2018-09-17T12:10:08.598Z,3128
2018-09-17T12:11:17.244Z,3076
2018-09-17T12:12:26.163Z,3064
2018-09-17T12:13:34.809Z,2968
2018-09-17T12:14:43.467Z,2828
2018-09-17T12:15:52.372Z,2752
2018-09-17T12:17:01.032Z,2764
2018-09-17T12:18:09.680Z,2672
2018-09-17T12:19:18.332Z,2704
2018-09-17T12:20:26.974Z,2860
2018-09-17T12:21:35.629Z,2828
2018-09-17T12:22:44.282Z,2812
2018-09-17T12:23:53.216Z,2848
2018-09-17T12:25:01.858Z,2880
2018-09-17T12:26:10.515Z,2920
2018-09-17T12:27:19.170Z,2904
2018-09-17T12:28:27.814Z,2888
2018-09-17T12:29:36.474Z,2836
2018-09-17T12:30:45.116Z,2824
2018-09-17T12:31:53.771Z,2804
2018-09-17T12:33:02.431Z,2792
2018-09-17T12:34:11.093Z,2872
2018-09-17T12:35:19.733Z,2904
2018-09-17T12:36:28.388Z,2932
2018-09-17T12:37:37.042Z,2944
2018-09-17T12:38:45.702Z,2948
2018-09-17T12:39:54.621Z,2960
2018-09-17T12:41:03.266Z,2972
2018-09-17T12:42:11.914Z,2988
2018-09-17T12:43:20.561Z,3000
2018-09-17T12:44:29.223Z,3032
2018-09-17T12:45:37.871Z,3080
2018-09-17T12:46:46.528Z,3080
2018-09-17T12:47:55.215Z,3108
2018-09-17T12:49:04.140Z,3112
2018-09-17T12:50:12.786Z,3112
2018-09-17T12:51:21.441Z,3076
2018-09-17T12:52:30.085Z,3080
2018-09-17T12:53:38.744Z,3080
2018-09-17T12:54:47.392Z,2968
2018-09-17T12:55:56.045Z,2940
2018-09-17T12:57:05.045Z,2888
2018-09-17T12:58:13.923Z,3008
2018-09-17T12:59:22.717Z,3076
2018-09-17T13:00:31.462Z,3068
2018-09-17T13:01:40.134Z,3052
2018-09-17T13:02:48.819Z,3032
2018-09-17T13:03:58.004Z,2996
2018-09-17T13:05:06.743Z,2988
2018-09-17T13:06:15.416Z,2976
2018-09-17T13:07:24.081Z,2932
2018-09-17T13:08:32.721Z,2860
2018-09-17T13:09:41.648Z,2716
2018-09-17T13:10:50.291Z,2768
2018-09-17T13:11:58.949Z,2764
2018-09-17T13:13:07.600Z,2800
2018-09-17T13:14:16.254Z,2828
2018-09-17T13:15:24.894Z,2800
2018-09-17T13:16:33.547Z,2732
2018-09-17T13:17:42.200Z,2648
2018-09-17T13:18:51.115Z,2584
2018-09-17T13:20:00.036Z,2584
2018-09-17T13:21:08.684Z,2572
2018-09-17T13:22:17.600Z,2576
2018-09-17T13:23:26.247Z,2616
2018-09-17T13:24:34.907Z,2620
2018-09-17T13:25:43.550Z,2604
2018-09-17T13:26:52.205Z,2560
2018-09-17T13:28:01.272Z,2504
2018-09-17T13:29:09.928Z,2504
2018-09-17T13:30:18.571Z,2520
2018-09-17T13:31:27.226Z,2540
2018-09-17T13:32:35.875Z,2560
2018-09-17T13:33:44.533Z,2604
2018-09-17T13:34:53.180Z,2632
2018-09-17T13:36:01.828Z,2676
2018-09-17T13:37:10.759Z,2680
2018-09-17T13:38:19.395Z,2688
2018-09-17T13:39:28.056Z,2720
2018-09-17T13:40:36.702Z,2764
2018-09-17T13:41:45.358Z,2784
2018-09-17T13:42:54.276Z,2820
2018-09-17T13:44:02.956Z,2844
2018-09-17T13:45:11.576Z,2876
2018-09-17T13:46:20.248Z,2908
2018-09-17T13:47:28.875Z,2932
2018-09-17T13:48:37.821Z,2952
2018-09-17T13:49:46.469Z,2960
2018-09-17T13:50:55.406Z,2984
2018-09-17T13:52:04.339Z,3000
2018-09-17T13:53:13.292Z,3024
2018-09-17T13:54:22.580Z,3044
2018-09-17T13:55:31.215Z,3032
2018-09-17T13:56:39.870Z,3040
2018-09-17T13:57:48.779Z,3044
2018-09-17T13:58:57.732Z,3048
2018-09-17T14:00:06.641Z,3036
2018-09-17T14:01:15.584Z,3060
2018-09-17T14:02:24.237Z,3068
2018-09-17T14:03:33.176Z,3100
2018-09-17T14:04:42.090Z,3144
2018-09-17T14:05:50.800Z,3172
2018-09-17T14:06:59.449Z,3232
2018-09-17T14:08:08.110Z,3272
2018-09-17T14:09:17.313Z,3292
2018-09-17T14:10:25.981Z,3328
2018-09-17T14:11:34.910Z,3332
2018-09-17T14:12:43.619Z,3324
2018-09-17T14:13:52.615Z,3348
2018-09-17T14:15:01.906Z,3344
2018-09-17T14:16:10.657Z,3360
2018-09-17T14:17:19.309Z,3372
2018-09-17T14:18:27.961Z,3396
2018-09-17T14:19:36.612Z,3412
2018-09-17T14:20:45.299Z,3416
2018-09-17T14:21:54.077Z,3428
2018-09-17T14:23:02.859Z,3444
2018-09-17T14:24:11.828Z,3456
2018-09-17T14:25:20.481Z,3480
2018-09-17T14:26:29.136Z,3472
2018-09-17T14:27:37.871Z,3476
2018-09-17T14:28:46.433Z,3476
2018-09-17T14:29:55.180Z,3476
2018-09-17T14:31:04.362Z,3488
2018-09-17T14:32:13.638Z,3480
2018-09-17T14:33:22.279Z,3472
2018-09-17T14:34:30.929Z,3476
2018-09-17T14:35:40.195Z,3460
2018-09-17T14:36:48.625Z,3440
2018-09-17T14:37:57.304Z,3432
2018-09-17T14:39:06.190Z,3416
2018-09-17T14:40:15.131Z,3416
2018-09-17T14:41:24.042Z,3376
2018-09-17T14:42:32.698Z,3356
2018-09-17T14:43:41.899Z,3316
2018-09-17T14:44:50.729Z,3256
2018-09-17T14:45:59.396Z,3236
2018-09-17T14:47:08.043Z,3196
2018-09-17T14:48:16.971Z,3160
2018-09-17T14:49:25.631Z,3124
2018-09-17T14:50:34.240Z,3100
2018-09-17T14:51:42.897Z,3056
2018-09-17T14:52:51.585Z,3016
2018-09-17T14:54:00.543Z,2976
2018-09-17T14:55:09.155Z,2936
2018-09-17T14:56:18.099Z,2900
2018-09-17T14:57:26.749Z,2852
2018-09-17T14:58:35.390Z,2800
2018-09-17T14:59:44.051Z,2756
2018-09-17T15:00:52.697Z,2700
2018-09-17T15:02:01.340Z,2648
2018-09-17T15:03:09.990Z,2592
2018-09-17T15:04:20.044Z,2500
2018-09-17T15:05:28.983Z,2420
2018-09-17T15:06:37.894Z,2356
2018-09-17T15:07:46.855Z,2284
2018-09-17T15:08:55.496Z,2212
2018-09-17T15:10:04.220Z,2140
2018-09-17T15:11:12.804Z,2092
2018-09-17T15:12:21.459Z,2056
2018-09-17T15:13:30.120Z,2028
2018-09-17T15:14:39.299Z,2000
2018-09-17T15:15:47.959Z,1980
2018-09-17T15:16:56.611Z,1964
2018-09-17T15:18:05.268Z,1948
2018-09-17T15:19:14.179Z,1932
2018-09-17T15:20:23.045Z,1920
2018-09-17T15:21:31.509Z,1908
2018-09-17T15:22:40.155Z,1896
2018-09-17T15:23:48.807Z,1876
2018-09-17T15:24:57.436Z,1864
2018-09-17T15:26:06.149Z,1844
2018-09-17T15:27:15.019Z,1832
2018-09-17T15:28:24.250Z,1808
2018-09-17T15:29:32.763Z,1792
2018-09-17T15:30:41.420Z,1772
2018-09-17T15:31:50.096Z,1756
2018-09-17T15:32:59.000Z,1736
2018-09-17T15:34:07.660Z,1724
2018-09-17T15:35:16.722Z,1708
2018-09-17T15:36:25.368Z,1688
2018-09-17T15:37:34.029Z,1672
2018-09-17T15:38:42.676Z,1648
2018-09-17T15:39:51.589Z,1632
2018-09-17T15:41:00.419Z,1616
2018-09-17T15:42:08.893Z,1592
2018-09-17T15:43:17.554Z,1576
2018-09-17T15:44:26.233Z,1556
2018-09-17T15:45:35.256Z,1536
2018-09-17T15:46:43.910Z,1516
2018-09-17T15:47:52.565Z,1500
2018-09-17T15:49:01.213Z,1480